createdAt,value
2022-08-26T00:02:00.552Z,11.07
2022-08-26T00:04:29.237Z,10.67
2022-08-26T00:06:57.651Z,10.70
2022-08-26T00:09:26.257Z,11.27
2022-08-26T00:11:54.647Z,10.90
2022-08-26T00:14:29.566Z,10.63
2022-08-26T00:16:59.351Z,10.70
2022-08-26T00:19:27.352Z,11.10
2022-08-26T00:21:55.349Z,10.70
2022-08-26T00:24:23.699Z,10.70
2022-08-26T00:26:51.899Z,10.03
2022-08-26T00:29:21.302Z,10.30
2022-08-26T00:31:51.574Z,10.57
2022-08-26T00:34:19.781Z,10.63
2022-08-26T00:36:47.880Z,9.70
2022-08-26T00:39:19.913Z,9.23
2022-08-26T00:41:48.659Z,9.97
2022-08-26T00:44:16.816Z,11.07
2022-08-26T00:46:48.160Z,11.13
2022-08-26T00:49:20.936Z,11.63
2022-08-26T00:51:53.726Z,10.43
2022-08-26T00:54:24.152Z,10.37
2022-08-26T00:56:59.858Z,10.70
2022-08-26T00:59:32.748Z,10.87
2022-08-26T01:02:02.752Z,10.63
2022-08-26T01:04:35.815Z,10.27
2022-08-26T01:07:04.359Z,10.83
2022-08-26T01:09:33.364Z,10.80
2022-08-26T01:12:04.243Z,10.73
2022-08-26T01:14:36.739Z,10.27
2022-08-26T01:17:07.357Z,10.13
2022-08-26T01:19:45.492Z,9.93
2022-08-26T01:22:18.246Z,11.13
2022-08-26T01:24:48.412Z,9.90
2022-08-26T01:27:20.564Z,11.13
2022-08-26T01:29:50.352Z,10.40
2022-08-26T01:32:23.281Z,11.30
2022-08-26T01:34:51.855Z,11.70
2022-08-26T01:37:23.082Z,11.83
2022-08-26T01:39:55.347Z,11.10
2022-08-26T01:42:25.750Z,10.50
2022-08-26T01:44:58.503Z,10.23
2022-08-26T01:47:30.731Z,10.30
2022-08-26T01:50:02.905Z,9.93
2022-08-26T01:52:34.237Z,10.17
2022-08-26T01:55:04.980Z,10.73
2022-08-26T01:57:33.633Z,11.17
2022-08-26T02:00:03.371Z,11.23
2022-08-26T02:02:39.971Z,10.73
2022-08-26T02:05:15.876Z,10.13
2022-08-26T02:07:44.873Z,10.73
2022-08-26T02:10:15.049Z,11.23
2022-08-26T02:12:43.275Z,10.77
2022-08-26T02:15:13.516Z,10.73
2022-08-26T02:17:44.515Z,10.93
2022-08-26T02:20:17.204Z,11.30
2022-08-26T02:22:46.061Z,11.13
2022-08-26T02:25:22.897Z,11.10
2022-08-26T02:27:51.041Z,10.77
2022-08-26T02:30:22.326Z,10.90
2022-08-26T02:32:51.754Z,10.67
2022-08-26T02:35:21.541Z,11.03
2022-08-26T02:37:51.061Z,11.77
2022-08-26T02:40:24.046Z,11.80
2022-08-26T02:42:53.231Z,11.80
2022-08-26T02:45:26.198Z,11.30
2022-08-26T02:47:55.728Z,12.67
2022-08-26T02:50:25.411Z,12.63
2022-08-26T02:52:53.468Z,12.17
2022-08-26T02:55:24.669Z,12.00
2022-08-26T02:57:52.706Z,12.00
2022-08-26T03:00:21.134Z,11.30
2022-08-26T03:02:49.073Z,12.30
2022-08-26T03:05:19.716Z,12.23
2022-08-26T03:07:47.961Z,11.93
2022-08-26T03:10:16.991Z,10.87
2022-08-26T03:12:47.534Z,10.87
2022-08-26T03:15:18.546Z,10.13
2022-08-26T03:17:47.744Z,11.37
2022-08-26T03:20:17.503Z,12.00
2022-08-26T03:22:46.249Z,11.53
2022-08-26T03:25:17.433Z,11.90
2022-08-26T03:27:47.024Z,12.13
2022-08-26T03:30:34.369Z,12.30
2022-08-26T03:33:03.097Z,12.30
2022-08-26T03:35:32.809Z,11.27
2022-08-26T03:38:01.001Z,8.70
2022-08-26T03:40:29.873Z,10.47
2022-08-26T03:42:59.279Z,11.60
2022-08-26T03:45:28.150Z,11.13
2022-08-26T03:47:56.192Z,11.47
2022-08-26T03:50:27.100Z,12.23
2022-08-26T03:52:56.323Z,11.07
2022-08-26T03:55:31.824Z,11.83
2022-08-26T03:58:02.062Z,11.83
2022-08-26T04:00:30.451Z,11.40
2022-08-26T04:02:58.500Z,11.17
2022-08-26T04:05:27.714Z,11.60
2022-08-26T04:07:56.344Z,11.03
2022-08-26T04:10:28.482Z,11.07
2022-08-26T04:12:58.982Z,11.10
2022-08-26T04:15:28.768Z,11.40
2022-08-26T04:17:57.524Z,11.03
2022-08-26T04:20:26.039Z,10.90
2022-08-26T04:22:54.251Z,11.00
2022-08-26T04:25:22.483Z,10.87
2022-08-26T04:27:52.243Z,10.67
2022-08-26T04:30:21.160Z,11.33
2022-08-26T04:32:50.685Z,10.67
2022-08-26T04:35:20.851Z,11.13
2022-08-26T04:37:53.452Z,11.47
2022-08-26T04:40:21.602Z,11.87
2022-08-26T04:42:50.240Z,12.30
2022-08-26T04:45:18.875Z,11.17
2022-08-26T04:47:56.237Z,11.53
2022-08-26T04:50:25.763Z,11.70
2022-08-26T04:52:55.031Z,11.93
2022-08-26T04:55:25.262Z,11.87
2022-08-26T04:58:08.729Z,12.27
2022-08-26T05:00:38.784Z,12.47
2022-08-26T05:03:10.320Z,11.57
2022-08-26T05:05:40.045Z,12.57
2022-08-26T05:08:08.117Z,12.00
2022-08-26T05:10:40.948Z,12.73
2022-08-26T05:13:10.976Z,10.53
2022-08-26T05:15:39.820Z,12.70
2022-08-26T05:18:10.864Z,11.50
2022-08-26T05:20:41.092Z,12.43
2022-08-26T05:23:09.147Z,12.07
2022-08-26T05:25:38.818Z,12.53
2022-08-26T05:28:07.636Z,12.67
2022-08-26T05:30:35.617Z,12.13
2022-08-26T05:33:03.812Z,11.67
2022-08-26T05:35:34.199Z,12.07
2022-08-26T05:38:04.110Z,11.80
2022-08-26T05:40:35.380Z,14.13
2022-08-26T05:43:03.356Z,13.17
2022-08-26T05:45:33.584Z,13.43
2022-08-26T05:48:01.386Z,13.13
2022-08-26T05:50:30.036Z,12.10
2022-08-26T05:52:59.180Z,12.47
2022-08-26T05:55:26.967Z,12.00
2022-08-26T05:57:55.478Z,11.67
2022-08-26T06:00:23.696Z,12.90
2022-08-26T06:02:51.579Z,12.63
2022-08-26T06:05:19.366Z,13.13
2022-08-26T06:08:07.062Z,12.67
2022-08-26T06:10:37.718Z,13.20
2022-08-26T06:13:11.647Z,13.60
2022-08-26T06:15:44.209Z,13.43
2022-08-26T06:18:13.311Z,14.50
2022-08-26T06:20:44.036Z,13.80
2022-08-26T06:23:43.258Z,14.40
2022-08-26T06:26:12.536Z,15.37
2022-08-26T06:28:40.403Z,15.03
2022-08-26T06:31:11.534Z,13.63
2022-08-26T06:33:39.483Z,14.00
2022-08-26T06:36:07.944Z,15.10
2022-08-26T06:38:36.515Z,14.77
2022-08-26T06:41:04.452Z,14.03
2022-08-26T06:43:33.565Z,13.43
2022-08-26T06:46:04.823Z,14.90
2022-08-26T06:48:33.342Z,13.90
2022-08-26T06:51:06.769Z,13.37
2022-08-26T06:53:34.562Z,13.93
2022-08-26T06:56:04.909Z,13.00
2022-08-26T06:58:37.613Z,12.13
2022-08-26T07:01:11.214Z,13.77
2022-08-26T07:03:39.737Z,14.63
2022-08-26T07:06:08.648Z,12.90
2022-08-26T07:08:36.862Z,13.53
2022-08-26T07:11:06.622Z,13.37
2022-08-26T07:13:38.067Z,13.17
2022-08-26T07:16:05.879Z,13.87
2022-08-26T07:18:36.303Z,13.57
2022-08-26T07:21:06.058Z,13.27
2022-08-26T07:23:35.536Z,14.07
2022-08-26T07:26:06.358Z,12.93
2022-08-26T07:28:34.304Z,12.40
2022-08-26T07:33:45.254Z,13.47
2022-08-26T07:36:15.130Z,12.83
2022-08-26T07:38:44.230Z,13.60
2022-08-26T07:41:14.161Z,13.37
2022-08-26T07:43:42.567Z,13.55
2022-08-26T07:46:16.456Z,12.87
2022-08-26T07:48:46.628Z,12.33
2022-08-26T07:51:15.438Z,11.60
2022-08-26T07:53:47.925Z,10.50
2022-08-26T07:56:20.232Z,13.40
2022-08-26T07:58:51.448Z,12.68
2022-08-26T08:01:19.810Z,12.93
2022-08-26T08:03:51.378Z,13.65
2022-08-26T08:06:19.545Z,12.15
2022-08-26T08:08:47.414Z,12.98
2022-08-26T08:11:15.517Z,11.35
2022-08-26T08:13:43.331Z,11.90
2022-08-26T08:16:12.726Z,12.52
2022-08-26T08:18:41.148Z,12.20
2022-08-26T08:21:21.124Z,13.27
2022-08-26T08:23:50.288Z,12.52
2022-08-26T08:26:19.097Z,11.02
2022-08-26T08:28:47.796Z,10.75
2022-08-26T08:31:38.663Z,10.95
2022-08-26T08:34:09.298Z,10.27
2022-08-26T08:36:38.540Z,9.55
2022-08-26T08:39:06.586Z,10.20
2022-08-26T08:41:49.323Z,11.05
2022-08-26T08:44:20.745Z,10.00
2022-08-26T08:46:55.529Z,10.82
2022-08-26T08:49:26.822Z,12.10
2022-08-26T08:52:04.221Z,10.80
2022-08-26T08:54:32.587Z,10.93
2022-08-26T08:57:07.322Z,9.88
2022-08-26T08:59:38.480Z,10.57
2022-08-26T09:02:16.464Z,10.90
2022-08-26T09:05:06.688Z,11.05
2022-08-26T09:07:40.276Z,11.38
2022-08-26T09:10:32.103Z,12.20
2022-08-26T09:13:02.480Z,11.75
2022-08-26T09:15:45.946Z,10.82
2022-08-26T09:18:29.471Z,11.23
2022-08-26T09:21:00.415Z,11.70
2022-08-26T09:23:29.947Z,10.63
2022-08-26T09:26:00.962Z,10.13
2022-08-26T09:28:31.592Z,10.27
2022-08-26T09:31:07.920Z,10.75
2022-08-26T09:33:40.135Z,10.70
2022-08-26T09:36:18.575Z,9.65
2022-08-26T09:38:47.703Z,10.40
2022-08-26T09:41:25.676Z,10.48
2022-08-26T09:44:14.445Z,9.27
2022-08-26T09:46:47.271Z,9.00
2022-08-26T09:49:29.896Z,8.40
2022-08-26T09:52:14.544Z,7.43
2022-08-26T09:54:46.055Z,7.70
2022-08-26T09:57:21.288Z,6.72
2022-08-26T09:59:50.555Z,6.78
2022-08-26T10:02:47.717Z,6.20
2022-08-26T10:05:28.601Z,6.30
2022-08-26T10:08:02.178Z,5.32
2022-08-26T10:10:36.628Z,5.75
2022-08-26T10:13:11.660Z,5.60
2022-08-26T10:15:50.782Z,5.95
2022-08-26T10:18:23.663Z,5.75
2022-08-26T10:20:57.038Z,5.65
2022-08-26T10:23:28.858Z,6.05
2022-08-26T10:26:03.986Z,6.50
2022-08-26T10:28:38.154Z,6.43
2022-08-26T10:31:14.763Z,6.30
2022-08-26T10:33:43.795Z,7.00
2022-08-26T10:36:46.927Z,7.13
2022-08-26T10:39:30.575Z,7.00
2022-08-26T10:42:04.239Z,6.85
2022-08-26T10:44:37.458Z,6.72
2022-08-26T10:47:13.753Z,6.35
2022-08-26T10:49:44.272Z,6.85
2022-08-26T10:52:19.480Z,6.53
2022-08-26T10:54:53.167Z,6.80
2022-08-26T10:57:32.909Z,6.30
2022-08-26T11:00:27.563Z,6.68
2022-08-26T11:03:00.933Z,7.07
2022-08-26T11:05:29.337Z,7.07
2022-08-26T11:08:29.327Z,6.53
2022-08-26T11:10:59.254Z,6.68
2022-08-26T11:14:03.105Z,6.53
2022-08-26T11:16:42.874Z,6.43
2022-08-26T11:19:13.962Z,6.90
2022-08-26T11:21:50.633Z,7.10
2022-08-26T11:25:00.338Z,6.97
2022-08-26T11:28:05.187Z,6.35
2022-08-26T11:30:56.806Z,6.95
2022-08-26T11:33:59.627Z,7.28
2022-08-26T11:36:58.315Z,6.47
2022-08-26T11:39:30.407Z,6.55
2022-08-26T11:42:03.044Z,6.65
2022-08-26T11:44:40.677Z,6.18
2022-08-26T11:47:13.047Z,6.13
2022-08-26T11:49:41.766Z,6.47
2022-08-26T11:52:12.849Z,5.55
2022-08-26T11:54:41.092Z,6.00
2022-08-26T11:57:14.394Z,5.65
2022-08-26T11:59:43.412Z,5.32
2022-08-26T12:02:16.757Z,5.50
2022-08-26T12:04:49.341Z,5.20
2022-08-26T12:07:23.781Z,5.20
2022-08-26T12:09:56.309Z,5.57
2022-08-26T12:12:31.746Z,5.72
2022-08-26T12:15:10.601Z,5.32
2022-08-26T12:17:40.805Z,5.22
2022-08-26T12:20:19.103Z,5.20
2022-08-26T12:22:48.278Z,5.15
2022-08-26T12:25:25.000Z,5.28
2022-08-26T12:27:54.007Z,4.70
2022-08-26T12:30:26.240Z,5.07
2022-08-26T12:33:22.320Z,4.63
2022-08-26T12:35:54.797Z,5.13
2022-08-26T12:38:25.948Z,4.85
2022-08-26T12:40:56.885Z,4.70
2022-08-26T12:43:40.311Z,5.10
2022-08-26T12:46:09.555Z,5.00
2022-08-26T12:48:41.467Z,5.20
2022-08-26T12:51:20.317Z,5.20
2022-08-26T12:53:48.238Z,5.13
2022-08-26T12:56:28.624Z,4.95
2022-08-26T12:59:05.926Z,5.30
2022-08-26T13:01:40.366Z,5.35
2022-08-26T13:04:33.036Z,4.93
2022-08-26T13:07:15.292Z,5.38
2022-08-26T13:09:43.176Z,5.55
2022-08-26T13:12:12.650Z,5.18
2022-08-26T13:14:40.538Z,5.90
2022-08-26T13:17:08.310Z,4.97
2022-08-26T13:19:37.446Z,5.50
2022-08-26T13:22:06.083Z,4.78
2022-08-26T13:24:36.858Z,4.90
2022-08-26T13:27:06.067Z,5.40
2022-08-26T13:29:33.879Z,5.18
2022-08-26T13:32:02.295Z,5.20
2022-08-26T13:34:31.467Z,4.60
2022-08-26T13:37:00.699Z,4.93
2022-08-26T13:39:28.674Z,5.07
2022-08-26T13:41:56.587Z,4.82
2022-08-26T13:44:24.783Z,4.57
2022-08-26T13:46:52.644Z,4.13
2022-08-26T13:49:20.403Z,4.22
2022-08-26T13:51:48.176Z,3.88
2022-08-26T13:54:17.325Z,3.70
2022-08-26T13:56:45.126Z,3.53
2022-08-26T13:59:12.947Z,3.70
2022-08-26T14:01:40.724Z,4.45
2022-08-26T14:04:08.674Z,4.18
2022-08-26T14:06:37.324Z,4.07
2022-08-26T14:09:05.691Z,4.70
2022-08-26T14:11:54.461Z,4.30
2022-08-26T14:14:23.190Z,4.00
2022-08-26T14:16:58.619Z,4.05
2022-08-26T14:19:29.554Z,4.57
2022-08-26T14:21:57.621Z,4.32
2022-08-26T14:24:25.601Z,4.05
2022-08-26T14:26:54.666Z,4.25
2022-08-26T14:29:22.584Z,4.15
2022-08-26T14:31:50.521Z,4.43
2022-08-26T14:34:18.621Z,4.28
2022-08-26T14:36:46.353Z,4.10
2022-08-26T14:39:14.786Z,4.05
2022-08-26T14:41:54.696Z,4.70
2022-08-26T14:44:28.522Z,4.38
2022-08-26T14:46:56.490Z,4.35
2022-08-26T14:49:25.198Z,4.90
2022-08-26T14:51:52.933Z,4.70
2022-08-26T14:54:20.747Z,5.25
2022-08-26T14:56:51.681Z,4.50
2022-08-26T14:59:22.177Z,4.80
2022-08-26T15:01:51.977Z,4.90
2022-08-26T15:04:20.401Z,5.00
2022-08-26T15:06:48.542Z,4.60
2022-08-26T15:09:16.859Z,4.55
2022-08-26T15:11:44.692Z,4.40
2022-08-26T15:14:19.866Z,4.65
2022-08-26T15:16:48.179Z,4.43
2022-08-26T15:19:17.988Z,4.75
2022-08-26T15:21:47.173Z,4.63
2022-08-26T15:24:16.359Z,4.80
2022-08-26T15:26:44.942Z,4.45
2022-08-26T15:29:12.902Z,4.50
2022-08-26T15:31:40.844Z,4.63
2022-08-26T15:34:14.541Z,4.75
2022-08-26T15:36:47.232Z,4.65
2022-08-26T15:39:17.281Z,4.60
2022-08-26T15:41:45.257Z,5.18
2022-08-26T15:44:16.121Z,5.25
2022-08-26T15:46:44.596Z,5.20
2022-08-26T15:49:18.215Z,5.68
2022-08-26T15:51:50.266Z,5.28
2022-08-26T15:54:22.160Z,5.32
2022-08-26T15:56:52.961Z,5.05
2022-08-26T15:59:22.284Z,5.50
2022-08-26T16:01:50.518Z,5.45
2022-08-26T16:04:18.650Z,5.45
2022-08-26T16:06:50.089Z,5.13
2022-08-26T16:09:18.087Z,5.18
2022-08-26T16:11:45.859Z,5.28
2022-08-26T16:14:13.651Z,5.78
2022-08-26T16:16:41.725Z,5.75
2022-08-26T16:19:10.029Z,5.85
2022-08-26T16:21:38.372Z,5.60
2022-08-26T16:24:07.784Z,5.80
2022-08-26T16:26:46.335Z,6.13
2022-08-26T16:29:16.243Z,5.80
2022-08-26T16:31:44.284Z,6.10
2022-08-26T16:34:12.363Z,6.28
2022-08-26T16:36:40.721Z,5.85
2022-08-26T16:39:10.608Z,6.55
2022-08-26T16:41:38.506Z,5.75
2022-08-26T16:44:07.722Z,5.90
2022-08-26T16:46:36.046Z,5.90
2022-08-26T16:49:04.621Z,6.45
2022-08-26T16:51:38.086Z,6.22
2022-08-26T16:54:07.393Z,5.80
2022-08-26T16:56:37.528Z,6.25
2022-08-26T16:59:06.527Z,6.13
2022-08-26T17:01:34.506Z,5.82
2022-08-26T17:04:02.442Z,5.88
2022-08-26T17:06:30.154Z,6.25
2022-08-26T17:08:57.934Z,5.60
2022-08-26T17:11:25.717Z,5.88
2022-08-26T17:13:54.913Z,5.78
2022-08-26T17:16:26.693Z,5.45
2022-08-26T17:18:56.084Z,5.70
2022-08-26T17:21:24.188Z,5.88
2022-08-26T17:23:52.167Z,5.57
2022-08-26T17:26:19.958Z,5.50
2022-08-26T17:28:47.777Z,5.78
2022-08-26T17:31:17.195Z,5.18
2022-08-26T17:33:47.840Z,5.20
2022-08-26T17:36:18.701Z,5.47
2022-08-26T17:38:46.534Z,5.38
2022-08-26T17:41:17.716Z,5.00
2022-08-26T17:43:46.026Z,5.05
2022-08-26T17:46:14.347Z,4.90
2022-08-26T17:48:43.848Z,4.75
2022-08-26T17:51:13.503Z,4.95
2022-08-26T17:53:41.581Z,4.93
2022-08-26T17:56:10.755Z,4.85
2022-08-26T17:58:38.726Z,4.40
2022-08-26T18:01:07.783Z,4.10
2022-08-26T18:03:36.478Z,4.20
2022-08-26T18:06:09.957Z,3.85
2022-08-26T18:08:38.451Z,4.10
2022-08-26T18:11:09.630Z,4.22
2022-08-26T18:13:38.005Z,3.88
2022-08-26T18:16:14.105Z,4.18
2022-08-26T18:18:42.156Z,3.97
2022-08-26T18:21:15.554Z,3.67
2022-08-26T18:23:43.598Z,3.95
2022-08-26T18:26:17.334Z,4.18
2022-08-26T18:28:45.119Z,3.80
2022-08-26T18:31:16.223Z,3.90
2022-08-26T18:33:44.462Z,3.97
2022-08-26T18:36:19.493Z,3.63
2022-08-26T18:38:48.046Z,3.95
2022-08-26T18:41:21.731Z,3.88
2022-08-26T18:43:51.242Z,4.20
2022-08-26T18:46:20.440Z,4.03
2022-08-26T18:48:50.953Z,4.45
2022-08-26T18:51:22.334Z,4.13
2022-08-26T18:53:50.880Z,3.80
2022-08-26T18:56:18.833Z,4.07
2022-08-26T18:58:46.686Z,4.20
2022-08-26T19:01:15.597Z,4.18
2022-08-26T19:03:43.598Z,4.10
2022-08-26T19:06:15.195Z,4.32
2022-08-26T19:08:44.700Z,4.18
2022-08-26T19:11:13.909Z,4.00
2022-08-26T19:13:42.147Z,4.55
2022-08-26T19:16:16.033Z,4.53
2022-08-26T19:18:45.462Z,4.68
2022-08-26T19:21:14.195Z,4.50
2022-08-26T19:23:42.321Z,4.60
2022-08-26T19:26:12.016Z,4.70
2022-08-26T19:28:40.655Z,4.90
2022-08-26T19:31:10.327Z,4.80
2022-08-26T19:33:39.497Z,4.55
2022-08-26T19:36:11.417Z,5.00
2022-08-26T19:38:42.721Z,4.57
2022-08-26T19:41:14.122Z,4.70
2022-08-26T19:43:42.469Z,4.60
2022-08-26T19:46:12.657Z,5.03
2022-08-26T19:48:40.616Z,4.47
2022-08-26T19:51:08.399Z,4.57
2022-08-26T19:53:36.200Z,4.63
2022-08-26T19:56:04.341Z,4.10
2022-08-26T19:58:33.560Z,4.68
2022-08-26T20:01:01.455Z,4.47
2022-08-26T20:03:29.353Z,5.30
2022-08-26T20:05:57.284Z,4.70
2022-08-26T20:08:25.103Z,5.10
2022-08-26T20:10:53.978Z,4.93
2022-08-26T20:13:22.356Z,4.50
2022-08-26T20:15:51.530Z,4.60
2022-08-26T20:18:36.725Z,4.13
2022-08-26T20:21:22.325Z,4.10
2022-08-26T20:23:51.348Z,4.23
2022-08-26T20:26:19.244Z,4.33
2022-08-26T20:28:47.094Z,4.10
2022-08-26T20:31:20.156Z,4.37
2022-08-26T20:33:48.138Z,4.17
2022-08-26T20:36:16.123Z,4.00
2022-08-26T20:38:45.166Z,3.92
2022-08-26T20:41:13.135Z,3.80
2022-08-26T20:43:42.640Z,3.92
2022-08-26T20:46:17.312Z,4.03
2022-08-26T20:48:49.433Z,4.30
2022-08-26T20:51:18.044Z,3.93
2022-08-26T20:53:46.372Z,4.10
2022-08-26T20:56:16.243Z,3.80
2022-08-26T20:58:44.265Z,4.15
2022-08-26T21:01:19.341Z,4.20
2022-08-26T21:03:49.159Z,4.13
2022-08-26T21:06:17.131Z,4.17
2022-08-26T21:08:45.199Z,4.57
2022-08-26T21:11:13.339Z,3.88
2022-08-26T21:14:01.603Z,3.88
2022-08-26T21:16:29.266Z,4.10
2022-08-26T21:19:00.305Z,4.10
2022-08-26T21:21:29.010Z,4.20
2022-08-26T21:23:57.169Z,4.00
2022-08-26T21:26:25.359Z,4.30
2022-08-26T21:28:53.707Z,3.80
2022-08-26T21:31:26.291Z,4.30
2022-08-26T21:33:54.452Z,4.10
2022-08-26T21:36:23.584Z,4.03
2022-08-26T21:38:51.361Z,4.60
2022-08-26T21:41:21.971Z,4.10
2022-08-26T21:43:51.039Z,4.33
2022-08-26T21:46:21.875Z,4.40
2022-08-26T21:48:53.192Z,4.43
2022-08-26T21:51:24.262Z,4.43
2022-08-26T21:53:53.198Z,4.57
2022-08-26T21:56:22.087Z,4.37
2022-08-26T21:58:50.362Z,4.13
2022-08-26T22:01:22.371Z,4.67
2022-08-26T22:03:52.202Z,4.20
2022-08-26T22:06:22.544Z,4.43
2022-08-26T22:08:51.733Z,4.40
2022-08-26T22:11:19.978Z,3.90
2022-08-26T22:13:49.531Z,3.90
2022-08-26T22:16:17.993Z,4.23
2022-08-26T22:18:46.383Z,4.70
2022-08-26T22:21:17.279Z,4.90
2022-08-26T22:23:51.163Z,4.50
2022-08-26T22:26:27.833Z,4.63
2022-08-26T22:28:59.177Z,4.73
2022-08-26T22:31:38.063Z,4.27
2022-08-26T22:34:07.598Z,4.60
2022-08-26T22:36:39.761Z,4.57
2022-08-26T22:39:13.548Z,4.70
2022-08-26T22:41:42.979Z,4.77
2022-08-26T22:44:11.644Z,5.13
2022-08-26T22:46:40.063Z,4.73
2022-08-26T22:49:09.378Z,5.23
2022-08-26T22:51:37.210Z,4.90
2022-08-26T22:54:05.829Z,4.93
2022-08-26T22:56:35.179Z,4.53
2022-08-26T22:59:03.192Z,4.87
2022-08-26T23:01:31.432Z,5.00
2022-08-26T23:03:59.226Z,5.03
2022-08-26T23:06:27.006Z,4.80
2022-08-26T23:08:57.992Z,5.00
2022-08-26T23:11:25.813Z,5.30
2022-08-26T23:13:54.955Z,5.67
2022-08-26T23:16:22.763Z,5.50
2022-08-26T23:18:50.492Z,5.20
2022-08-26T23:21:18.326Z,5.20
2022-08-26T23:23:46.146Z,5.47
2022-08-26T23:26:17.502Z,5.10
2022-08-26T23:28:45.657Z,5.10
2022-08-26T23:31:15.309Z,4.83
2022-08-26T23:34:00.496Z,5.03
2022-08-26T23:36:30.822Z,5.57
2022-08-26T23:39:00.215Z,5.87
2022-08-26T23:41:28.329Z,5.50
2022-08-26T23:43:58.692Z,5.70
2022-08-26T23:46:29.676Z,5.47
2022-08-26T23:48:57.460Z,5.70
2022-08-26T23:51:42.547Z,5.40
2022-08-26T23:54:13.796Z,6.00
2022-08-26T23:56:42.022Z,5.77
2022-08-26T23:59:09.834Z,5.57
